sensor_id;sensor_type;location;lat;lon;timestamp;pressure;altitude;pressure_sealevel;temperature;humidity
23321;BME280;33376;51.306;4.752;2023-02-03T00:01:27;102988.66;;;9.80;nan
23321;BME280;33376;51.306;4.752;2023-02-03T00:03:52;102983.31;;;9.81;nan
23321;BME280;33376;51.306;4.752;2023-02-03T00:06:18;102980.66;;;9.83;nan
23321;BME280;33376;51.306;4.752;2023-02-03T00:08:43;102979.69;;;9.88;nan
23321;BME280;33376;51.306;4.752;2023-02-03T00:11:08;102977.19;;;9.79;nan
23321;BME280;33376;51.306;4.752;2023-02-03T00:13:34;102973.72;;;9.76;nan
23321;BME280;33376;51.306;4.752;2023-02-03T00:15:59;102981.66;;;9.77;nan
23321;BME280;33376;51.306;4.752;2023-02-03T00:18:26;102994.13;;;9.71;nan
23321;BME280;33376;51.306;4.752;2023-02-03T00:20:51;102991.41;;;9.74;nan
23321;BME280;33376;51.306;4.752;2023-02-03T00:23:16;103002.06;;;9.71;nan
23321;BME280;33376;51.306;4.752;2023-02-03T00:25:41;102997.34;;;9.88;nan
23321;BME280;33376;51.306;4.752;2023-02-03T00:28:06;103005.44;;;9.80;nan
23321;BME280;33376;51.306;4.752;2023-02-03T00:30:35;102997.50;;;9.79;nan
23321;BME280;33376;51.306;4.752;2023-02-03T00:33:01;102992.41;;;9.68;nan
23321;BME280;33376;51.306;4.752;2023-02-03T00:35:27;103015.22;;;9.75;nan
23321;BME280;33376;51.306;4.752;2023-02-03T00:37:53;103008.06;;;9.82;nan
23321;BME280;33376;51.306;4.752;2023-02-03T00:40:19;103013.34;;;9.82;nan
23321;BME280;33376;51.306;4.752;2023-02-03T00:42:44;103009.91;;;9.77;nan
23321;BME280;33376;51.306;4.752;2023-02-03T00:45:10;103009.81;;;9.81;nan
23321;BME280;33376;51.306;4.752;2023-02-03T00:47:35;103008.06;;;9.82;nan
23321;BME280;33376;51.306;4.752;2023-02-03T00:50:00;103021.31;;;9.82;nan
23321;BME280;33376;51.306;4.752;2023-02-03T00:52:25;103025.69;;;9.83;nan
23321;BME280;33376;51.306;4.752;2023-02-03T00:54:51;103030.16;;;9.81;nan
23321;BME280;33376;51.306;4.752;2023-02-03T00:57:16;103029.09;;;9.91;nan
23321;BME280;33376;51.306;4.752;2023-02-03T00:59:41;103026.66;;;9.79;nan
23321;BME280;33376;51.306;4.752;2023-02-03T01:02:06;103021.44;;;9.74;nan
23321;BME280;33376;51.306;4.752;2023-02-03T01:04:32;103025.59;;;9.90;nan
23321;BME280;33376;51.306;4.752;2023-02-03T01:06:57;103018.59;;;9.85;nan
23321;BME280;33376;51.306;4.752;2023-02-03T01:09:23;103019.50;;;9.84;nan
23321;BME280;33376;51.306;4.752;2023-02-03T01:11:49;103037.19;;;9.82;nan
23321;BME280;33376;51.306;4.752;2023-02-03T01:14:14;103036.22;;;9.89;nan
23321;BME280;33376;51.306;4.752;2023-02-03T01:16:39;103053.97;;;9.84;nan
23321;BME280;33376;51.306;4.752;2023-02-03T01:19:05;103055.75;;;9.82;nan
23321;BME280;33376;51.306;4.752;2023-02-03T01:21:30;103047.72;;;9.86;nan
23321;BME280;33376;51.306;4.752;2023-02-03T01:23:55;103051.28;;;9.85;nan
23321;BME280;33376;51.306;4.752;2023-02-03T01:26:21;103045.94;;;9.88;nan
23321;BME280;33376;51.306;4.752;2023-02-03T01:28:54;103066.41;;;9.79;nan
23321;BME280;33376;51.306;4.752;2023-02-03T01:31:21;103048.59;;;9.87;nan
23321;BME280;33376;51.306;4.752;2023-02-03T01:33:47;103058.38;;;9.83;nan
23321;BME280;33376;51.306;4.752;2023-02-03T01:36:16;103045.09;;;9.85;nan
23321;BME280;33376;51.306;4.752;2023-02-03T01:38:41;103053.03;;;9.85;nan
23321;BME280;33376;51.306;4.752;2023-02-03T01:41:09;103053.03;;;9.86;nan
23321;BME280;33376;51.306;4.752;2023-02-03T01:43:36;103054.72;;;9.92;nan
23321;BME280;33376;51.306;4.752;2023-02-03T01:48:46;103036.16;;;9.92;nan
23321;BME280;33376;51.306;4.752;2023-02-03T01:51:11;103034.19;;;10.03;nan
23321;BME280;33376;51.306;4.752;2023-02-03T01:53:36;103032.56;;;9.94;nan
23321;BME280;33376;51.306;4.752;2023-02-03T01:56:03;103018.47;;;9.91;nan
23321;BME280;33376;51.306;4.752;2023-02-03T01:58:30;103016.47;;;10.06;nan
23321;BME280;33376;51.306;4.752;2023-02-03T02:00:56;103027.94;;;10.05;nan
23321;BME280;33376;51.306;4.752;2023-02-03T02:03:23;103037.75;;;10.02;nan
23321;BME280;33376;51.306;4.752;2023-02-03T02:05:50;103022.69;;;10.04;nan
23321;BME280;33376;51.306;4.752;2023-02-03T02:08:18;103015.59;;;10.07;nan
23321;BME280;33376;51.306;4.752;2023-02-03T02:10:46;103001.47;;;10.04;nan
23321;BME280;33376;51.306;4.752;2023-02-03T02:13:12;103002.31;;;10.06;nan
23321;BME280;33376;51.306;4.752;2023-02-03T02:20:43;102997.97;;;10.03;nan
23321;BME280;33376;51.306;4.752;2023-02-03T02:23:25;102980.22;;;10.08;nan
23321;BME280;33376;51.306;4.752;2023-02-03T02:26:41;102971.28;;;10.14;nan
23321;BME280;33376;51.306;4.752;2023-02-03T02:41:52;103031.34;;;10.15;nan
23321;BME280;33376;51.306;4.752;2023-02-03T02:44:32;103015.50;;;10.12;nan
23321;BME280;33376;51.306;4.752;2023-02-03T02:47:04;103026.13;;;10.10;nan
23321;BME280;33376;51.306;4.752;2023-02-03T02:50:05;103018.22;;;10.09;nan
23321;BME280;33376;51.306;4.752;2023-02-03T02:52:22;103000.28;;;10.21;nan
23321;BME280;33376;51.306;4.752;2023-02-03T02:54:50;103003.09;;;10.14;nan
23321;BME280;33376;51.306;4.752;2023-02-03T02:57:16;102996.97;;;10.10;nan
23321;BME280;33376;51.306;4.752;2023-02-03T02:59:44;103012.72;;;10.19;nan
23321;BME280;33376;51.306;4.752;2023-02-03T03:02:09;103018.94;;;10.17;nan
23321;BME280;33376;51.306;4.752;2023-02-03T03:04:35;103035.63;;;10.23;nan
23321;BME280;33376;51.306;4.752;2023-02-03T03:09:30;103063.91;;;10.21;nan
23321;BME280;33376;51.306;4.752;2023-02-03T03:12:02;103038.31;;;10.20;nan
23321;BME280;33376;51.306;4.752;2023-02-03T03:14:30;103027.88;;;10.13;nan
23321;BME280;33376;51.306;4.752;2023-02-03T03:16:58;103026.13;;;10.10;nan
23321;BME280;33376;51.306;4.752;2023-02-03T03:19:24;103029.59;;;10.14;nan
23321;BME280;33376;51.306;4.752;2023-02-03T03:21:52;103026.13;;;10.10;nan
23321;BME280;33376;51.306;4.752;2023-02-03T03:24:23;103033.22;;;10.10;nan
23321;BME280;33376;51.306;4.752;2023-02-03T03:27:01;103039.38;;;10.10;nan
23321;BME280;33376;51.306;4.752;2023-02-03T03:29:29;103013.47;;;10.26;nan
23321;BME280;33376;51.306;4.752;2023-02-03T03:31:59;103021.44;;;10.24;nan
23321;BME280;33376;51.306;4.752;2023-02-03T03:34:25;103026.78;;;10.23;nan
23321;BME280;33376;51.306;4.752;2023-02-03T03:39:36;103027.78;;;10.17;nan
23321;BME280;33376;51.306;4.752;2023-02-03T03:44:49;103034.88;;;10.15;nan
23321;BME280;33376;51.306;4.752;2023-02-03T03:50:00;103037.50;;;10.17;nan
23321;BME280;33376;51.306;4.752;2023-02-03T03:52:28;103026.84;;;10.20;nan
23321;BME280;33376;51.306;4.752;2023-02-03T03:54:54;103018.81;;;10.23;nan
23321;BME280;33376;51.306;4.752;2023-02-03T03:57:25;103016.31;;;10.15;nan
23321;BME280;33376;51.306;4.752;2023-02-03T03:59:53;103021.53;;;10.20;nan
23321;BME280;33376;51.306;4.752;2023-02-03T04:02:18;103009.13;;;10.22;nan
23321;BME280;33376;51.306;4.752;2023-02-03T04:04:45;103018.16;;;10.12;nan
23321;BME280;33376;51.306;4.752;2023-02-03T04:07:13;103015.59;;;10.07;nan
23321;BME280;33376;51.306;4.752;2023-02-03T04:09:39;103027.22;;;9.97;nan
23321;BME280;33376;51.306;4.752;2023-02-03T04:12:08;103025.28;;;10.08;nan
23321;BME280;33376;51.306;4.752;2023-02-03T04:14:37;103024.53;;;9.99;nan
23321;BME280;33376;51.306;4.752;2023-02-03T04:17:02;103033.38;;;9.99;nan
23321;BME280;33376;51.306;4.752;2023-02-03T04:19:28;103037.72;;;10.03;nan
23321;BME280;33376;51.306;4.752;2023-02-03T04:21:53;103036.78;;;10.07;nan
23321;BME280;33376;51.306;4.752;2023-02-03T04:24:19;103027.03;;;10.09;nan
23321;BME280;33376;51.306;4.752;2023-02-03T04:26:44;103038.31;;;10.20;nan
23321;BME280;33376;51.306;4.752;2023-02-03T04:29:09;103049.13;;;10.10;nan
23321;BME280;33376;51.306;4.752;2023-02-03T04:31:34;103040.28;;;10.11;nan
23321;BME280;33376;51.306;4.752;2023-02-03T04:34:00;103065.09;;;10.04;nan
23321;BME280;33376;51.306;4.752;2023-02-03T04:36:25;103060.69;;;10.03;nan
23321;BME280;33376;51.306;4.752;2023-02-03T04:38:50;103058.84;;;10.09;nan
23321;BME280;33376;51.306;4.752;2023-02-03T04:41:19;103046.44;;;10.13;nan
23321;BME280;33376;51.306;4.752;2023-02-03T04:43:46;103043.69;;;10.17;nan
23321;BME280;33376;51.306;4.752;2023-02-03T04:46:12;103057.91;;;10.12;nan
23321;BME280;33376;51.306;4.752;2023-02-03T04:48:43;103069.44;;;10.11;nan
23321;BME280;33376;51.306;4.752;2023-02-03T04:51:09;103057.16;;;10.02;nan
23321;BME280;33376;51.306;4.752;2023-02-03T04:53:37;103047.38;;;10.09;nan
23321;BME280;33376;51.306;4.752;2023-02-03T04:56:02;103047.53;;;9.98;nan
23321;BME280;33376;51.306;4.752;2023-02-03T04:58:27;103036.97;;;9.97;nan
23321;BME280;33376;51.306;4.752;2023-02-03T05:00:53;103051.13;;;9.94;nan
23321;BME280;33376;51.306;4.752;2023-02-03T05:03:18;103035.06;;;10.03;nan
23321;BME280;33376;51.306;4.752;2023-02-03T05:05:44;103039.50;;;10.03;nan
23321;BME280;33376;51.306;4.752;2023-02-03T05:08:09;103043.06;;;10.02;nan
23321;BME280;33376;51.306;4.752;2023-02-03T05:10:34;103043.06;;;10.02;nan
23321;BME280;33376;51.306;4.752;2023-02-03T05:12:59;103044.78;;;10.03;nan
23321;BME280;33376;51.306;4.752;2023-02-03T05:15:25;103036.53;;;10.22;nan
23321;BME280;33376;51.306;4.752;2023-02-03T05:17:51;103040.19;;;10.15;nan
23321;BME280;33376;51.306;4.752;2023-02-03T05:20:16;103033.16;;;10.13;nan
23321;BME280;33376;51.306;4.752;2023-02-03T05:22:41;103036.69;;;10.13;nan
23321;BME280;33376;51.306;4.752;2023-02-03T05:25:07;103055.34;;;10.06;nan
23321;BME280;33376;51.306;4.752;2023-02-03T05:27:32;103047.53;;;9.98;nan
23321;BME280;33376;51.306;4.752;2023-02-03T05:29:57;103052.63;;;10.10;nan
23321;BME280;33376;51.306;4.752;2023-02-03T05:32:23;103066.69;;;10.15;nan
23321;BME280;33376;51.306;4.752;2023-02-03T05:34:48;103068.53;;;10.10;nan
23321;BME280;33376;51.306;4.752;2023-02-03T05:37:13;103070.56;;;9.93;nan
23321;BME280;33376;51.306;4.752;2023-02-03T05:39:38;103067.78;;;10.01;nan
23321;BME280;33376;51.306;4.752;2023-02-03T05:42:04;103084.63;;;9.98;nan
23321;BME280;33376;51.306;4.752;2023-02-03T05:44:29;103078.41;;;10.01;nan
23321;BME280;33376;51.306;4.752;2023-02-03T05:46:58;103071.25;;;10.07;nan
23321;BME280;33376;51.306;4.752;2023-02-03T05:49:23;103072.19;;;10.03;nan
23321;BME280;33376;51.306;4.752;2023-02-03T05:51:49;103084.41;;;10.12;nan
23321;BME280;33376;51.306;4.752;2023-02-03T05:54:15;103077.31;;;10.14;nan
23321;BME280;33376;51.306;4.752;2023-02-03T05:56:40;103077.34;;;10.12;nan
23321;BME280;33376;51.306;4.752;2023-02-03T05:59:06;103085.31;;;10.12;nan
23321;BME280;33376;51.306;4.752;2023-02-03T06:01:31;103079.75;;;10.26;nan
23321;BME280;33376;51.306;4.752;2023-02-03T06:03:57;103074.22;;;10.40;nan
23321;BME280;33376;51.306;4.752;2023-02-03T06:06:22;103085.06;;;10.24;nan
23321;BME280;33376;51.306;4.752;2023-02-03T06:08:48;103087.94;;;10.14;nan
23321;BME280;33376;51.306;4.752;2023-02-03T06:11:15;103083.56;;;10.11;nan
23321;BME280;33376;51.306;4.752;2023-02-03T06:13:40;103077.34;;;10.12;nan
23321;BME280;33376;51.306;4.752;2023-02-03T06:16:05;103074.72;;;10.11;nan
23321;BME280;33376;51.306;4.752;2023-02-03T06:18:31;103072.66;;;10.28;nan
23321;BME280;33376;51.306;4.752;2023-02-03T06:20:56;103064.00;;;10.17;nan
23321;BME280;33376;51.306;4.752;2023-02-03T06:23:21;103069.25;;;10.20;nan
23321;BME280;33376;51.306;4.752;2023-02-03T06:25:47;103066.75;;;10.12;nan
23321;BME280;33376;51.306;4.752;2023-02-03T06:28:13;103063.91;;;10.21;nan
23321;BME280;33376;51.306;4.752;2023-02-03T06:30:38;103059.56;;;10.19;nan
23321;BME280;33376;51.306;4.752;2023-02-03T06:33:03;103050.69;;;10.20;nan
23321;BME280;33376;51.306;4.752;2023-02-03T06:35:28;103064.31;;;9.97;nan
23321;BME280;33376;51.306;4.752;2023-02-03T06:37:54;103080.97;;;10.05;nan
23321;BME280;33376;51.306;4.752;2023-02-03T06:40:19;103083.63;;;10.05;nan
23321;BME280;33376;51.306;4.752;2023-02-03T06:42:45;103086.41;;;9.98;nan
23321;BME280;33376;51.306;4.752;2023-02-03T06:45:10;103088.25;;;9.93;nan
23321;BME280;33376;51.306;4.752;2023-02-03T06:47:38;103099.69;;;9.95;nan
23321;BME280;33376;51.306;4.752;2023-02-03T06:50:03;103100.63;;;9.91;nan
23321;BME280;33376;51.306;4.752;2023-02-03T06:52:29;103094.47;;;9.92;nan
23321;BME280;33376;51.306;4.752;2023-02-03T06:54:54;103091.75;;;9.95;nan
23321;BME280;33376;51.306;4.752;2023-02-03T06:57:19;103082.22;;;9.83;nan
23321;BME280;33376;51.306;4.752;2023-02-03T06:59:44;103076.88;;;9.85;nan
23321;BME280;33376;51.306;4.752;2023-02-03T07:02:10;103083.16;;;9.81;nan
23321;BME280;33376;51.306;4.752;2023-02-03T07:04:35;103089.28;;;9.83;nan
23321;BME280;33376;51.306;4.752;2023-02-03T07:07:02;103087.25;;;10.00;nan
23321;BME280;33376;51.306;4.752;2023-02-03T07:09:28;103075.94;;;9.90;nan
23321;BME280;33376;51.306;4.752;2023-02-03T07:11:53;103083.16;;;9.81;nan
23321;BME280;33376;51.306;4.752;2023-02-03T07:14:18;103079.50;;;9.88;nan
23321;BME280;33376;51.306;4.752;2023-02-03T07:16:43;103094.69;;;9.77;nan
23321;BME280;33376;51.306;4.752;2023-02-03T07:19:08;103089.16;;;9.92;nan
23321;BME280;33376;51.306;4.752;2023-02-03T07:21:34;103103.31;;;9.89;nan
23321;BME280;33376;51.306;4.752;2023-02-03T07:23:59;103104.28;;;9.85;nan
23321;BME280;33376;51.306;4.752;2023-02-03T07:26:26;103098.91;;;9.88;nan
23321;BME280;33376;51.306;4.752;2023-02-03T07:28:51;103110.44;;;9.87;nan
23321;BME280;33376;51.306;4.752;2023-02-03T07:31:17;103103.06;;;10.06;nan
23321;BME280;33376;51.306;4.752;2023-02-03T07:33:42;103104.03;;;10.02;nan
23321;BME280;33376;51.306;4.752;2023-02-03T07:36:08;103105.75;;;10.03;nan
23321;BME280;33376;51.306;4.752;2023-02-03T07:38:34;103105.72;;;10.04;nan
23321;BME280;33376;51.306;4.752;2023-02-03T07:40:59;103107.44;;;10.11;nan
23321;BME280;33376;51.306;4.752;2023-02-03T07:43:24;103111.56;;;10.26;nan
23321;BME280;33376;51.306;4.752;2023-02-03T07:45:50;103103.91;;;10.09;nan
23321;BME280;33376;51.306;4.752;2023-02-03T07:48:15;103113.66;;;10.06;nan
23321;BME280;33376;51.306;4.752;2023-02-03T07:50:40;103117.16;;;10.09;nan
23321;BME280;33376;51.306;4.752;2023-02-03T07:53:06;103123.41;;;10.04;nan
23321;BME280;33376;51.306;4.752;2023-02-03T07:55:33;103130.41;;;10.11;nan
23321;BME280;33376;51.306;4.752;2023-02-03T07:57:59;103127.63;;;10.17;nan
23321;BME280;33376;51.306;4.752;2023-02-03T08:00:25;103133.75;;;10.22;nan
23321;BME280;33376;51.306;4.752;2023-02-03T08:02:50;103123.09;;;10.23;nan
23321;BME280;33376;51.306;4.752;2023-02-03T08:05:15;103115.13;;;10.25;nan
23321;BME280;33376;51.306;4.752;2023-02-03T08:07:41;103130.09;;;10.29;nan
23321;BME280;33376;51.306;4.752;2023-02-03T08:10:07;103136.28;;;10.28;nan
23321;BME280;33376;51.306;4.752;2023-02-03T08:12:32;103138.09;;;10.27;nan
23321;BME280;33376;51.306;4.752;2023-02-03T08:14:58;103131.84;;;10.30;nan
23321;BME280;33376;51.306;4.752;2023-02-03T08:17:23;103138.91;;;10.29;nan
23321;BME280;33376;51.306;4.752;2023-02-03T08:19:48;103122.91;;;10.34;nan
23321;BME280;33376;51.306;4.752;2023-02-03T08:22:14;103129.13;;;10.33;nan
23321;BME280;33376;51.306;4.752;2023-02-03T08:24:43;103163.41;;;10.44;nan
23321;BME280;33376;51.306;4.752;2023-02-03T08:27:13;103155.72;;;10.30;nan
23321;BME280;33376;51.306;4.752;2023-02-03T08:29:39;103159.31;;;10.27;nan
23321;BME280;33376;51.306;4.752;2023-02-03T08:32:04;103167.13;;;10.35;nan
23321;BME280;33376;51.306;4.752;2023-02-03T08:34:32;103170.72;;;10.29;nan
23321;BME280;33376;51.306;4.752;2023-02-03T08:36:58;103174.25;;;10.31;nan
23321;BME280;33376;51.306;4.752;2023-02-03T08:39:23;103173.31;;;10.34;nan
23321;BME280;33376;51.306;4.752;2023-02-03T08:41:49;103175.13;;;10.32;nan
23321;BME280;33376;51.306;4.752;2023-02-03T08:44:14;103184.81;;;10.33;nan
23321;BME280;33376;51.306;4.752;2023-02-03T08:46:39;103195.44;;;10.33;nan
23321;BME280;33376;51.306;4.752;2023-02-03T08:49:08;103202.50;;;10.32;nan
23321;BME280;33376;51.306;4.752;2023-02-03T08:51:33;103199.81;;;10.34;nan
23321;BME280;33376;51.306;4.752;2023-02-03T08:53:58;103207.78;;;10.34;nan
23321;BME280;33376;51.306;4.752;2023-02-03T08:56:24;103214.81;;;10.37;nan
23321;BME280;33376;51.306;4.752;2023-02-03T08:58:50;103223.53;;;10.45;nan
23321;BME280;33376;51.306;4.752;2023-02-03T09:01:15;103217.50;;;10.35;nan
23321;BME280;33376;51.306;4.752;2023-02-03T09:03:41;103228.16;;;10.32;nan
23321;BME280;33376;51.306;4.752;2023-02-03T09:06:07;103226.16;;;10.46;nan
23321;BME280;33376;51.306;4.752;2023-02-03T09:08:33;103230.78;;;10.35;nan
23321;BME280;33376;51.306;4.752;2023-02-03T09:10:58;103241.31;;;10.38;nan
23321;BME280;33376;51.306;4.752;2023-02-03T09:13:23;103232.59;;;10.31;nan
23321;BME280;33376;51.306;4.752;2023-02-03T09:15:49;103228.00;;;10.41;nan
23321;BME280;33376;51.306;4.752;2023-02-03T09:18:14;103234.19;;;10.43;nan
23321;BME280;33376;51.306;4.752;2023-02-03T09:20:40;103216.59;;;10.36;nan
23321;BME280;33376;51.306;4.752;2023-02-03T09:23:05;103227.97;;;10.43;nan
23321;BME280;33376;51.306;4.752;2023-02-03T09:25:31;103235.84;;;10.49;nan
23321;BME280;33376;51.306;4.752;2023-02-03T09:27:56;103232.41;;;10.42;nan
23321;BME280;33376;51.306;4.752;2023-02-03T09:30:22;103235.84;;;10.47;nan
23321;BME280;33376;51.306;4.752;2023-02-03T09:32:47;103222.63;;;10.46;nan
23321;BME280;33376;51.306;4.752;2023-02-03T09:35:18;103224.31;;;10.51;nan
23321;BME280;33376;51.306;4.752;2023-02-03T09:37:43;103226.72;;;10.65;nan
23321;BME280;33376;51.306;4.752;2023-02-03T09:40:09;103226.75;;;10.63;nan
23321;BME280;33376;51.306;4.752;2023-02-03T09:45:25;103230.13;;;10.73;nan
23321;BME280;33376;51.306;4.752;2023-02-03T09:47:51;103224.88;;;10.70;nan
23321;BME280;33376;51.306;4.752;2023-02-03T09:50:20;103221.28;;;10.74;nan
23321;BME280;33376;51.306;4.752;2023-02-03T09:52:46;103215.22;;;10.66;nan
23321;BME280;33376;51.306;4.752;2023-02-03T09:58:01;103219.38;;;10.79;nan
23321;BME280;33376;51.306;4.752;2023-02-03T10:00:29;103226.63;;;10.72;nan
23321;BME280;33376;51.306;4.752;2023-02-03T10:03:05;103242.38;;;10.81;nan
23321;BME280;33376;51.306;4.752;2023-02-03T10:10:40;103243.78;;;11.00;nan
23321;BME280;33376;51.306;4.752;2023-02-03T10:18:27;103257.84;;;11.05;nan
23321;BME280;33376;51.306;4.752;2023-02-03T10:20:54;103261.38;;;11.07;nan
23321;BME280;33376;51.306;4.752;2023-02-03T10:23:35;103262.19;;;11.09;nan
23321;BME280;33376;51.306;4.752;2023-02-03T10:26:06;103265.81;;;11.05;nan
23321;BME280;33376;51.306;4.752;2023-02-03T10:28:38;103271.94;;;11.10;nan
23321;BME280;33376;51.306;4.752;2023-02-03T10:31:06;103275.56;;;11.05;nan
23321;BME280;33376;51.306;4.752;2023-02-03T10:33:36;103286.06;;;11.11;nan
23321;BME280;33376;51.306;4.752;2023-02-03T10:41:10;103277.47;;;10.97;nan
23321;BME280;33376;51.306;4.752;2023-02-03T10:43:36;103266.59;;;11.12;nan
23321;BME280;33376;51.306;4.752;2023-02-03T10:46:27;103256.63;;;11.23;nan
23321;BME280;33376;51.306;4.752;2023-02-03T10:48:53;103258.13;;;11.37;nan
23321;BME280;33376;51.306;4.752;2023-02-03T10:51:19;103260.72;;;11.40;nan
23321;BME280;33376;51.306;4.752;2023-02-03T10:53:45;103249.88;;;11.51;nan
23321;BME280;33376;51.306;4.752;2023-02-03T10:56:12;103241.91;;;11.51;nan
23321;BME280;33376;51.306;4.752;2023-02-03T10:58:39;103242.56;;;11.62;nan
23321;BME280;33376;51.306;4.752;2023-02-03T11:01:11;103235.50;;;11.61;nan
23321;BME280;33376;51.306;4.752;2023-02-03T11:03:37;103240.81;;;11.61;nan
23321;BME280;33376;51.306;4.752;2023-02-03T11:06:15;103239.88;;;11.65;nan
23321;BME280;33376;51.306;4.752;2023-02-03T11:08:44;103239.94;;;11.60;nan
23321;BME280;33376;51.306;4.752;2023-02-03T11:11:29;103234.81;;;11.51;nan
23321;BME280;33376;51.306;4.752;2023-02-03T11:16:24;103240.13;;;11.51;nan
23321;BME280;33376;51.306;4.752;2023-02-03T11:18:59;103230.16;;;11.62;nan
23321;BME280;33376;51.306;4.752;2023-02-03T11:21:39;103227.47;;;11.65;nan
23321;BME280;33376;51.306;4.752;2023-02-03T11:24:25;103214.22;;;11.62;nan
23321;BME280;33376;51.306;4.752;2023-02-03T11:29:21;103210.47;;;11.72;nan
23321;BME280;33376;51.306;4.752;2023-02-03T11:31:48;103205.09;;;11.75;nan
23321;BME280;33376;51.306;4.752;2023-02-03T11:34:33;103217.44;;;11.78;nan
23321;BME280;33376;51.306;4.752;2023-02-03T11:37:44;103217.50;;;11.75;nan
23321;BME280;33376;51.306;4.752;2023-02-03T11:39:44;103221.31;;;11.60;nan
23321;BME280;33376;51.306;4.752;2023-02-03T11:42:20;103223.84;;;11.68;nan
23321;BME280;33376;51.306;4.752;2023-02-03T11:44:45;103219.38;;;11.70;nan
23321;BME280;33376;51.306;4.752;2023-02-03T11:47:11;103223.91;;;11.65;nan
23321;BME280;33376;51.306;4.752;2023-02-03T11:49:43;103218.56;;;11.66;nan
23321;BME280;33376;51.306;4.752;2023-02-03T11:52:28;103224.88;;;11.61;nan
23321;BME280;33376;51.306;4.752;2023-02-03T11:54:59;103230.91;;;11.70;nan
23321;BME280;33376;51.306;4.752;2023-02-03T11:58:18;103223.84;;;11.69;nan
23321;BME280;33376;51.306;4.752;2023-02-03T12:07:54;103238.69;;;11.78;nan
23321;BME280;33376;51.306;4.752;2023-02-03T12:18:04;103245.75;;;11.81;nan
23321;BME280;33376;51.306;4.752;2023-02-03T12:23:19;103227.53;;;11.61;nan
23321;BME280;33376;51.306;4.752;2023-02-03T12:26:09;103235.63;;;11.55;nan
23321;BME280;33376;51.306;4.752;2023-02-03T12:28:44;103257.94;;;11.46;nan
23321;BME280;33376;51.306;4.752;2023-02-03T12:31:29;103245.47;;;11.50;nan
23321;BME280;33376;51.306;4.752;2023-02-03T12:34:19;103254.22;;;11.55;nan
23321;BME280;33376;51.306;4.752;2023-02-03T12:39:22;103243.44;;;11.64;nan
23321;BME280;33376;51.306;4.752;2023-02-03T12:42:10;103248.84;;;11.58;nan
23321;BME280;33376;51.306;4.752;2023-02-03T12:44:44;103253.13;;;11.66;nan
23321;BME280;33376;51.306;4.752;2023-02-03T12:49:43;103255.88;;;11.60;nan
23321;BME280;33376;51.306;4.752;2023-02-03T12:57:31;103249.75;;;11.57;nan
23321;BME280;33376;51.306;4.752;2023-02-03T13:00:02;103253.38;;;11.53;nan
23321;BME280;33376;51.306;4.752;2023-02-03T13:02:31;103262.22;;;11.55;nan
23321;BME280;33376;51.306;4.752;2023-02-03T13:05:15;103261.34;;;11.53;nan
23321;BME280;33376;51.306;4.752;2023-02-03T13:07:47;103272.88;;;11.53;nan
23321;BME280;33376;51.306;4.752;2023-02-03T13:10:16;103267.50;;;11.56;nan
23321;BME280;33376;51.306;4.752;2023-02-03T13:12:46;103268.50;;;11.49;nan
23321;BME280;33376;51.306;4.752;2023-02-03T13:15:19;103270.22;;;11.53;nan
23321;BME280;33376;51.306;4.752;2023-02-03T13:20:44;103276.38;;;11.54;nan
23321;BME280;33376;51.306;4.752;2023-02-03T13:23:11;103274.56;;;11.56;nan
23321;BME280;33376;51.306;4.752;2023-02-03T13:33:27;103285.22;;;11.54;nan
23321;BME280;33376;51.306;4.752;2023-02-03T13:41:21;103282.81;;;11.44;nan
23321;BME280;33376;51.306;4.752;2023-02-03T13:43:49;103302.25;;;11.44;nan
23321;BME280;33376;51.306;4.752;2023-02-03T13:46:26;103290.00;;;11.37;nan
23321;BME280;33376;51.306;4.752;2023-02-03T13:48:53;103305.25;;;11.28;nan
23321;BME280;33376;51.306;4.752;2023-02-03T13:54:34;103301.56;;;11.35;nan
23321;BME280;33376;51.306;4.752;2023-02-03T13:57:04;103306.91;;;11.32;nan
23321;BME280;33376;51.306;4.752;2023-02-03T14:09:54;103320.03;;;11.41;nan
23321;BME280;33376;51.306;4.752;2023-02-03T14:14:55;103322.28;;;11.63;nan
23321;BME280;33376;51.306;4.752;2023-02-03T14:19:58;103312.25;;;11.77;nan
23321;BME280;33376;51.306;4.752;2023-02-03T14:22:23;103318.50;;;11.75;nan
23321;BME280;33376;51.306;4.752;2023-02-03T14:24:48;103316.09;;;11.61;nan
23321;BME280;33376;51.306;4.752;2023-02-03T14:27:21;103318.69;;;11.67;nan
23321;BME280;33376;51.306;4.752;2023-02-03T14:30:09;103312.53;;;11.62;nan
23321;BME280;33376;51.306;4.752;2023-02-03T14:32:50;103310.81;;;11.58;nan
23321;BME280;33376;51.306;4.752;2023-02-03T14:35:16;103310.16;;;11.47;nan
23321;BME280;33376;51.306;4.752;2023-02-03T14:37:50;103311.00;;;11.49;nan
23321;BME280;33376;51.306;4.752;2023-02-03T14:50:57;103330.13;;;11.22;nan
23321;BME280;33376;51.306;4.752;2023-02-03T14:58:42;103327.47;;;11.22;nan
23321;BME280;33376;51.306;4.752;2023-02-03T15:01:21;103320.34;;;11.24;nan
23321;BME280;33376;51.306;4.752;2023-02-03T15:04:06;103323.94;;;11.20;nan
23321;BME280;33376;51.306;4.752;2023-02-03T15:06:36;103328.41;;;11.20;nan
23321;BME280;33376;51.306;4.752;2023-02-03T15:09:02;103332.06;;;11.13;nan
23321;BME280;33376;51.306;4.752;2023-02-03T15:11:42;103333.66;;;11.23;nan
23321;BME280;33376;51.306;4.752;2023-02-03T15:16:42;103330.88;;;11.29;nan
23321;BME280;33376;51.306;4.752;2023-02-03T15:19:15;103338.69;;;11.38;nan
23321;BME280;33376;51.306;4.752;2023-02-03T15:21:40;103337.72;;;11.43;nan
23321;BME280;33376;51.306;4.752;2023-02-03T15:24:13;103343.97;;;11.39;nan
23321;BME280;33376;51.306;4.752;2023-02-03T15:26:44;103343.09;;;11.40;nan
23321;BME280;33376;51.306;4.752;2023-02-03T15:29:16;103336.16;;;11.32;nan
23321;BME280;33376;51.306;4.752;2023-02-03T15:31:45;103341.34;;;11.38;nan
23321;BME280;33376;51.306;4.752;2023-02-03T15:34:19;103353.03;;;11.29;nan
23321;BME280;33376;51.306;4.752;2023-02-03T15:36:48;103350.31;;;11.32;nan